sensor_id;sensor_type;location;lat;lon;timestamp;P1;durP1;ratioP1;P2;durP2;ratioP2
23346;SDS011;36852;45.466;11.066;2024-02-15T06:23:43;74.47;;;39.73;;
23346;SDS011;36852;45.466;11.066;2024-02-15T06:26:13;76.60;;;42.60;;
23346;SDS011;36852;45.466;11.066;2024-02-15T06:28:43;71.82;;;39.15;;
23346;SDS011;36852;45.466;11.066;2024-02-15T06:31:29;67.37;;;40.03;;
23346;SDS011;36852;45.466;11.066;2024-02-15T06:34:17;72.47;;;40.67;;
23346;SDS011;36852;45.466;11.066;2024-02-15T06:37:06;76.20;;;43.58;;
23346;SDS011;36852;45.466;11.066;2024-02-15T06:39:56;75.25;;;45.03;;
23346;SDS011;36852;45.466;11.066;2024-02-15T06:43:07;76.15;;;41.83;;
23346;SDS011;36852;45.466;11.066;2024-02-15T06:45:36;68.25;;;39.78;;
23346;SDS011;36852;45.466;11.066;2024-02-15T06:48:07;73.65;;;40.43;;
23346;SDS011;36852;45.466;11.066;2024-02-15T06:50:35;65.90;;;39.67;;
23346;SDS011;36852;45.466;11.066;2024-02-15T06:53:07;69.27;;;39.60;;
23346;SDS011;36852;45.466;11.066;2024-02-15T06:55:37;72.20;;;39.20;;
23346;SDS011;36852;45.466;11.066;2024-02-15T06:58:06;62.85;;;37.98;;
23346;SDS011;36852;45.466;11.066;2024-02-15T07:00:38;62.45;;;35.43;;
23346;SDS011;36852;45.466;11.066;2024-02-15T07:03:07;63.48;;;36.42;;
23346;SDS011;36852;45.466;11.066;2024-02-15T07:05:36;58.55;;;36.00;;
23346;SDS011;36852;45.466;11.066;2024-02-15T07:08:11;62.67;;;37.50;;
23346;SDS011;36852;45.466;11.066;2024-02-15T07:10:40;62.38;;;36.35;;
23346;SDS011;36852;45.466;11.066;2024-02-15T07:13:11;67.42;;;39.58;;
23346;SDS011;36852;45.466;11.066;2024-02-15T07:15:39;51.55;;;31.30;;
23346;SDS011;36852;45.466;11.066;2024-02-15T07:18:11;57.90;;;35.35;;
23346;SDS011;36852;45.466;11.066;2024-02-15T07:20:42;65.45;;;37.83;;
23346;SDS011;36852;45.466;11.066;2024-02-15T07:23:11;59.85;;;36.35;;
23346;SDS011;36852;45.466;11.066;2024-02-15T07:25:39;57.05;;;35.48;;
23346;SDS011;36852;45.466;11.066;2024-02-15T07:28:08;56.50;;;33.92;;
23346;SDS011;36852;45.466;11.066;2024-02-15T07:30:37;57.67;;;34.95;;
23346;SDS011;36852;45.466;11.066;2024-02-15T07:33:07;58.20;;;35.58;;
23346;SDS011;36852;45.466;11.066;2024-02-15T07:35:36;66.53;;;39.38;;
23346;SDS011;36852;45.466;11.066;2024-02-15T07:38:05;54.53;;;35.35;;
23346;SDS011;36852;45.466;11.066;2024-02-15T07:40:37;55.08;;;31.70;;
23346;SDS011;36852;45.466;11.066;2024-02-15T07:43:07;46.70;;;29.85;;
23346;SDS011;36852;45.466;11.066;2024-02-15T07:45:37;53.17;;;31.52;;
23346;SDS011;36852;45.466;11.066;2024-02-15T07:48:05;49.40;;;30.52;;
23346;SDS011;36852;45.466;11.066;2024-02-15T07:50:34;51.63;;;30.15;;
23346;SDS011;36852;45.466;11.066;2024-02-15T07:53:04;68.78;;;38.70;;
23346;SDS011;36852;45.466;11.066;2024-02-15T07:55:34;60.48;;;37.30;;
23346;SDS011;36852;45.466;11.066;2024-02-15T07:58:04;82.47;;;48.63;;
23346;SDS011;36852;45.466;11.066;2024-02-15T08:00:34;56.02;;;35.15;;
23346;SDS011;36852;45.466;11.066;2024-02-15T08:03:05;59.55;;;34.92;;
23346;SDS011;36852;45.466;11.066;2024-02-15T08:05:36;50.12;;;33.40;;
23346;SDS011;36852;45.466;11.066;2024-02-15T08:08:11;57.25;;;35.58;;
23346;SDS011;36852;45.466;11.066;2024-02-15T08:10:42;58.13;;;35.88;;
23346;SDS011;36852;45.466;11.066;2024-02-15T08:13:11;61.45;;;36.42;;
23346;SDS011;36852;45.466;11.066;2024-02-15T08:15:41;61.58;;;36.45;;
23346;SDS011;36852;45.466;11.066;2024-02-15T08:18:12;54.33;;;36.83;;
23346;SDS011;36852;45.466;11.066;2024-02-15T08:20:41;59.55;;;36.08;;
23346;SDS011;36852;45.466;11.066;2024-02-15T08:23:12;58.40;;;36.85;;
23346;SDS011;36852;45.466;11.066;2024-02-15T08:25:49;57.55;;;37.17;;
23346;SDS011;36852;45.466;11.066;2024-02-15T08:28:34;59.83;;;35.38;;
23346;SDS011;36852;45.466;11.066;2024-02-15T08:31:03;56.25;;;34.98;;
23346;SDS011;36852;45.466;11.066;2024-02-15T08:33:31;54.10;;;34.50;;
23346;SDS011;36852;45.466;11.066;2024-02-15T08:36:00;55.35;;;35.80;;
23346;SDS011;36852;45.466;11.066;2024-02-15T08:38:33;52.53;;;34.95;;
23346;SDS011;36852;45.466;11.066;2024-02-15T08:41:03;49.83;;;30.88;;
23346;SDS011;36852;45.466;11.066;2024-02-15T08:46:32;48.65;;;30.57;;
23346;SDS011;36852;45.466;11.066;2024-02-15T08:49:00;45.73;;;30.62;;
23346;SDS011;36852;45.466;11.066;2024-02-15T08:51:39;47.73;;;31.57;;
23346;SDS011;36852;45.466;11.066;2024-02-15T08:54:11;43.52;;;31.87;;
23346;SDS011;36852;45.466;11.066;2024-02-15T08:56:51;53.38;;;31.80;;
23346;SDS011;36852;45.466;11.066;2024-02-15T08:59:21;43.83;;;30.60;;
23346;SDS011;36852;45.466;11.066;2024-02-15T09:01:50;45.25;;;29.77;;
23346;SDS011;36852;45.466;11.066;2024-02-15T09:04:22;45.15;;;28.67;;
23346;SDS011;36852;45.466;11.066;2024-02-15T09:07:12;44.98;;;31.12;;
23346;SDS011;36852;45.466;11.066;2024-02-15T09:09:41;42.78;;;30.40;;
23346;SDS011;36852;45.466;11.066;2024-02-15T09:12:10;44.63;;;31.48;;
23346;SDS011;36852;45.466;11.066;2024-02-15T09:14:40;43.75;;;30.72;;
23346;SDS011;36852;45.466;11.066;2024-02-15T09:17:12;50.98;;;32.80;;
23346;SDS011;36852;45.466;11.066;2024-02-15T09:19:50;46.63;;;33.08;;
23346;SDS011;36852;45.466;11.066;2024-02-15T09:22:21;48.30;;;32.45;;
23346;SDS011;36852;45.466;11.066;2024-02-15T09:24:52;43.48;;;32.03;;
23346;SDS011;36852;45.466;11.066;2024-02-15T09:27:26;48.38;;;32.53;;
23346;SDS011;36852;45.466;11.066;2024-02-15T09:29:55;47.27;;;33.48;;
23346;SDS011;36852;45.466;11.066;2024-02-15T09:32:25;45.75;;;33.05;;
23346;SDS011;36852;45.466;11.066;2024-02-15T09:34:56;45.20;;;31.95;;
23346;SDS011;36852;45.466;11.066;2024-02-15T09:37:27;54.03;;;32.48;;
23346;SDS011;36852;45.466;11.066;2024-02-15T09:39:56;46.55;;;33.00;;
23346;SDS011;36852;45.466;11.066;2024-02-15T09:42:28;46.25;;;32.08;;
23346;SDS011;36852;45.466;11.066;2024-02-15T09:44:58;41.60;;;32.23;;
23346;SDS011;36852;45.466;11.066;2024-02-15T09:47:37;39.95;;;32.23;;
23346;SDS011;36852;45.466;11.066;2024-02-15T09:50:09;44.10;;;34.18;;
23346;SDS011;36852;45.466;11.066;2024-02-15T09:52:51;43.58;;;34.27;;
23346;SDS011;36852;45.466;11.066;2024-02-15T09:55:18;41.60;;;34.65;;
23346;SDS011;36852;45.466;11.066;2024-02-15T09:57:49;42.83;;;33.73;;
23346;SDS011;36852;45.466;11.066;2024-02-15T10:00:18;44.95;;;34.25;;
23346;SDS011;36852;45.466;11.066;2024-02-15T10:02:51;44.95;;;35.25;;
23346;SDS011;36852;45.466;11.066;2024-02-15T10:05:21;47.67;;;34.75;;
23346;SDS011;36852;45.466;11.066;2024-02-15T10:07:51;43.45;;;33.95;;
23346;SDS011;36852;45.466;11.066;2024-02-15T10:10:19;42.15;;;32.90;;
23346;SDS011;36852;45.466;11.066;2024-02-15T10:12:54;45.12;;;34.00;;
23346;SDS011;36852;45.466;11.066;2024-02-15T10:18:15;47.20;;;32.80;;
23346;SDS011;36852;45.466;11.066;2024-02-15T10:20:58;45.08;;;34.80;;
23346;SDS011;36852;45.466;11.066;2024-02-15T10:23:26;43.70;;;34.05;;
23346;SDS011;36852;45.466;11.066;2024-02-15T10:26:00;42.98;;;35.00;;
23346;SDS011;36852;45.466;11.066;2024-02-15T10:28:32;45.35;;;33.55;;
23346;SDS011;36852;45.466;11.066;2024-02-15T10:31:07;46.75;;;34.67;;
23346;SDS011;36852;45.466;11.066;2024-02-15T10:33:33;48.30;;;36.10;;
23346;SDS011;36852;45.466;11.066;2024-02-15T10:36:09;42.25;;;35.83;;
23346;SDS011;36852;45.466;11.066;2024-02-15T10:38:42;50.20;;;37.80;;
23346;SDS011;36852;45.466;11.066;2024-02-15T10:41:11;51.65;;;39.27;;
23346;SDS011;36852;45.466;11.066;2024-02-15T10:43:39;52.70;;;39.05;;
23346;SDS011;36852;45.466;11.066;2024-02-15T10:46:14;56.88;;;36.90;;
23346;SDS011;36852;45.466;11.066;2024-02-15T10:48:50;52.73;;;39.67;;
23346;SDS011;36852;45.466;11.066;2024-02-15T10:51:21;53.52;;;38.88;;
23346;SDS011;36852;45.466;11.066;2024-02-15T10:53:57;57.90;;;41.70;;
23346;SDS011;36852;45.466;11.066;2024-02-15T11:03:23;69.90;;;39.53;;
23346;SDS011;36852;45.466;11.066;2024-02-15T11:05:56;59.70;;;39.58;;
23346;SDS011;36852;45.466;11.066;2024-02-15T11:08:29;61.23;;;40.55;;
23346;SDS011;36852;45.466;11.066;2024-02-15T11:10:58;61.45;;;41.28;;
23346;SDS011;36852;45.466;11.066;2024-02-15T11:13:30;65.83;;;43.48;;
23346;SDS011;36852;45.466;11.066;2024-02-15T11:15:59;65.87;;;41.40;;
23346;SDS011;36852;45.466;11.066;2024-02-15T11:18:41;66.92;;;41.05;;
23346;SDS011;36852;45.466;11.066;2024-02-15T11:21:17;60.63;;;41.33;;
23346;SDS011;36852;45.466;11.066;2024-02-15T11:23:46;63.10;;;42.13;;
23346;SDS011;36852;45.466;11.066;2024-02-15T11:35:16;62.73;;;40.88;;
23346;SDS011;36852;45.466;11.066;2024-02-15T11:43:52;60.50;;;41.28;;
23346;SDS011;36852;45.466;11.066;2024-02-15T11:46:28;68.17;;;40.10;;
23346;SDS011;36852;45.466;11.066;2024-02-15T11:49:04;60.48;;;39.88;;
23346;SDS011;36852;45.466;11.066;2024-02-15T11:51:34;65.72;;;42.20;;
23346;SDS011;36852;45.466;11.066;2024-02-15T11:59:39;62.45;;;41.55;;
23346;SDS011;36852;45.466;11.066;2024-02-15T12:02:25;62.80;;;40.08;;
23346;SDS011;36852;45.466;11.066;2024-02-15T12:05:12;65.12;;;41.00;;
23346;SDS011;36852;45.466;11.066;2024-02-15T12:08:05;63.98;;;42.73;;
23346;SDS011;36852;45.466;11.066;2024-02-15T12:14:03;63.02;;;41.60;;
23346;SDS011;36852;45.466;11.066;2024-02-15T12:20:24;64.77;;;42.08;;
23346;SDS011;36852;45.466;11.066;2024-02-15T12:22:55;72.42;;;42.85;;
23346;SDS011;36852;45.466;11.066;2024-02-15T12:25:23;68.50;;;42.62;;
23346;SDS011;36852;45.466;11.066;2024-02-15T12:27:55;63.25;;;42.20;;
23346;SDS011;36852;45.466;11.066;2024-02-15T12:33:08;70.15;;;44.95;;
23346;SDS011;36852;45.466;11.066;2024-02-15T12:35:28;71.30;;;47.40;;
23346;SDS011;36852;45.466;11.066;2024-02-15T12:40:35;74.45;;;48.05;;
23346;SDS011;36852;45.466;11.066;2024-02-15T12:43:06;73.85;;;46.75;;
23346;SDS011;36852;45.466;11.066;2024-02-15T12:45:39;71.10;;;46.75;;
23346;SDS011;36852;45.466;11.066;2024-02-15T12:48:08;75.72;;;47.98;;
23346;SDS011;36852;45.466;11.066;2024-02-15T12:50:38;74.05;;;49.63;;
23346;SDS011;36852;45.466;11.066;2024-02-15T12:53:07;77.25;;;47.58;;
23346;SDS011;36852;45.466;11.066;2024-02-15T12:55:39;79.22;;;50.03;;
23346;SDS011;36852;45.466;11.066;2024-02-15T15:51:13;77.55;;;46.33;;
23346;SDS011;36852;45.466;11.066;2024-02-15T16:08:39;78.25;;;45.73;;
23346;SDS011;36852;45.466;11.066;2024-02-15T16:11:11;75.42;;;46.68;;
23346;SDS011;36852;45.466;11.066;2024-02-15T16:14:10;81.05;;;46.40;;
23346;SDS011;36852;45.466;11.066;2024-02-15T16:17:00;81.00;;;48.15;;
23346;SDS011;36852;45.466;11.066;2024-02-15T16:23:12;80.53;;;49.40;;
23346;SDS011;36852;45.466;11.066;2024-02-15T16:26:00;82.33;;;49.50;;
23346;SDS011;36852;45.466;11.066;2024-02-15T16:28:53;78.07;;;49.60;;
23346;SDS011;36852;45.466;11.066;2024-02-15T17:00:49;85.15;;;51.40;;
23346;SDS011;36852;45.466;11.066;2024-02-15T17:03:19;88.80;;;51.00;;
23346;SDS011;36852;45.466;11.066;2024-02-15T17:08:33;79.87;;;49.33;;
23346;SDS011;36852;45.466;11.066;2024-02-15T17:11:29;82.70;;;51.58;;
23346;SDS011;36852;45.466;11.066;2024-02-15T17:14:09;89.03;;;50.67;;
23346;SDS011;36852;45.466;11.066;2024-02-15T17:16:56;90.07;;;50.60;;
23346;SDS011;36852;45.466;11.066;2024-02-15T17:19:29;86.85;;;53.45;;
23346;SDS011;36852;45.466;11.066;2024-02-15T17:21:57;93.60;;;54.33;;
23346;SDS011;36852;45.466;11.066;2024-02-15T17:24:44;88.07;;;52.48;;
23346;SDS011;36852;45.466;11.066;2024-02-15T17:27:35;86.10;;;50.55;;
23346;SDS011;36852;45.466;11.066;2024-02-15T17:30:24;93.20;;;54.30;;
23346;SDS011;36852;45.466;11.066;2024-02-15T17:33:01;95.55;;;53.25;;
23346;SDS011;36852;45.466;11.066;2024-02-15T17:35:54;88.77;;;54.10;;
23346;SDS011;36852;45.466;11.066;2024-02-15T17:41:35;96.42;;;53.08;;
23346;SDS011;36852;45.466;11.066;2024-02-15T17:44:24;96.57;;;55.45;;
23346;SDS011;36852;45.466;11.066;2024-02-15T17:47:17;93.45;;;52.93;;
23346;SDS011;36852;45.466;11.066;2024-02-15T17:50:06;90.03;;;53.35;;
23346;SDS011;36852;45.466;11.066;2024-02-15T17:53:11;92.08;;;55.43;;
23346;SDS011;36852;45.466;11.066;2024-02-15T17:55:39;95.05;;;56.28;;
23346;SDS011;36852;45.466;11.066;2024-02-15T17:58:12;95.32;;;56.00;;
23346;SDS011;36852;45.466;11.066;2024-02-15T18:00:50;97.50;;;57.70;;
23346;SDS011;36852;45.466;11.066;2024-02-15T18:03:27;100.70;;;57.05;;
23346;SDS011;36852;45.466;11.066;2024-02-15T18:06:16;100.38;;;57.62;;
23346;SDS011;36852;45.466;11.066;2024-02-15T18:09:25;103.87;;;58.63;;
23346;SDS011;36852;45.466;11.066;2024-02-15T18:12:14;102.20;;;59.48;;
23346;SDS011;36852;45.466;11.066;2024-02-15T18:24:49;105.30;;;59.23;;
23346;SDS011;36852;45.466;11.066;2024-02-15T18:27:17;95.45;;;56.58;;
23346;SDS011;36852;45.466;11.066;2024-02-15T18:29:54;108.92;;;61.65;;
23346;SDS011;36852;45.466;11.066;2024-02-15T18:32:41;106.15;;;61.68;;
23346;SDS011;36852;45.466;11.066;2024-02-15T18:35:17;104.95;;;59.98;;
23346;SDS011;36852;45.466;11.066;2024-02-15T18:37:53;101.95;;;60.40;;
23346;SDS011;36852;45.466;11.066;2024-02-15T18:40:45;111.28;;;60.98;;
23346;SDS011;36852;45.466;11.066;2024-02-15T18:43:14;111.00;;;61.25;;
23346;SDS011;36852;45.466;11.066;2024-02-15T18:45:52;102.62;;;59.88;;
23346;SDS011;36852;45.466;11.066;2024-02-15T18:48:22;100.22;;;60.63;;
23346;SDS011;36852;45.466;11.066;2024-02-15T18:51:07;112.45;;;63.50;;
23346;SDS011;36852;45.466;11.066;2024-02-15T18:53:35;103.22;;;62.35;;
23346;SDS011;36852;45.466;11.066;2024-02-15T18:56:04;114.25;;;65.17;;
23346;SDS011;36852;45.466;11.066;2024-02-15T18:58:37;113.08;;;65.47;;
23346;SDS011;36852;45.466;11.066;2024-02-15T19:01:07;112.62;;;65.15;;
23346;SDS011;36852;45.466;11.066;2024-02-15T19:03:37;107.15;;;63.00;;
23346;SDS011;36852;45.466;11.066;2024-02-15T19:06:08;111.47;;;63.78;;
23346;SDS011;36852;45.466;11.066;2024-02-15T19:08:45;110.78;;;64.03;;
23346;SDS011;36852;45.466;11.066;2024-02-15T19:11:18;115.12;;;64.67;;
23346;SDS011;36852;45.466;11.066;2024-02-15T19:13:48;110.72;;;63.65;;
23346;SDS011;36852;45.466;11.066;2024-02-15T19:16:19;109.72;;;67.05;;
23346;SDS011;36852;45.466;11.066;2024-02-15T19:18:55;118.00;;;63.87;;
23346;SDS011;36852;45.466;11.066;2024-02-15T19:21:25;107.87;;;65.37;;
23346;SDS011;36852;45.466;11.066;2024-02-15T19:23:55;114.00;;;64.62;;
23346;SDS011;36852;45.466;11.066;2024-02-15T19:26:43;108.37;;;65.57;;
23346;SDS011;36852;45.466;11.066;2024-02-15T19:29:27;116.37;;;66.53;;
23346;SDS011;36852;45.466;11.066;2024-02-15T19:31:56;111.45;;;64.80;;
23346;SDS011;36852;45.466;11.066;2024-02-15T19:34:27;114.22;;;65.37;;
23346;SDS011;36852;45.466;11.066;2024-02-15T19:37:06;119.97;;;64.85;;
23346;SDS011;36852;45.466;11.066;2024-02-15T19:39:37;115.25;;;65.97;;
23346;SDS011;36852;45.466;11.066;2024-02-15T19:42:07;109.17;;;64.82;;
23346;SDS011;36852;45.466;11.066;2024-02-15T19:44:36;115.47;;;66.50;;
23346;SDS011;36852;45.466;11.066;2024-02-15T19:47:12;115.40;;;67.58;;
23346;SDS011;36852;45.466;11.066;2024-02-15T19:49:42;124.90;;;74.00;;
23346;SDS011;36852;45.466;11.066;2024-02-15T19:52:10;122.85;;;71.55;;
23346;SDS011;36852;45.466;11.066;2024-02-15T19:54:38;103.32;;;64.45;;
23346;SDS011;36852;45.466;11.066;2024-02-15T19:57:06;119.95;;;66.80;;
23346;SDS011;36852;45.466;11.066;2024-02-15T19:59:42;110.15;;;63.02;;
23346;SDS011;36852;45.466;11.066;2024-02-15T20:02:10;113.42;;;67.12;;
23346;SDS011;36852;45.466;11.066;2024-02-15T20:04:38;115.57;;;65.95;;
23346;SDS011;36852;45.466;11.066;2024-02-15T20:07:07;117.15;;;64.35;;
23346;SDS011;36852;45.466;11.066;2024-02-15T20:09:37;120.30;;;68.50;;
23346;SDS011;36852;45.466;11.066;2024-02-15T20:12:07;110.45;;;66.15;;
23346;SDS011;36852;45.466;11.066;2024-02-15T20:14:36;110.28;;;61.50;;
23346;SDS011;36852;45.466;11.066;2024-02-15T20:17:07;113.25;;;66.07;;
23346;SDS011;36852;45.466;11.066;2024-02-15T20:19:38;118.62;;;67.37;;
23346;SDS011;36852;45.466;11.066;2024-02-15T20:22:09;113.70;;;67.37;;
23346;SDS011;36852;45.466;11.066;2024-02-15T20:46:04;112.70;;;66.45;;
23346;SDS011;36852;45.466;11.066;2024-02-15T20:48:47;114.97;;;63.80;;
23346;SDS011;36852;45.466;11.066;2024-02-15T20:51:18;114.60;;;64.82;;
23346;SDS011;36852;45.466;11.066;2024-02-15T20:53:48;119.93;;;65.32;;
23346;SDS011;36852;45.466;11.066;2024-02-15T20:59:43;113.52;;;67.62;;
23346;SDS011;36852;45.466;11.066;2024-02-15T21:02:13;109.70;;;63.92;;
23346;SDS011;36852;45.466;11.066;2024-02-15T21:05:06;114.92;;;64.30;;
23346;SDS011;36852;45.466;11.066;2024-02-15T21:07:39;115.32;;;63.65;;
23346;SDS011;36852;45.466;11.066;2024-02-15T21:10:20;118.33;;;66.92;;
23346;SDS011;36852;45.466;11.066;2024-02-15T21:12:55;114.65;;;66.20;;
23346;SDS011;36852;45.466;11.066;2024-02-15T21:15:27;115.80;;;66.02;;
23346;SDS011;36852;45.466;11.066;2024-02-15T21:17:57;108.65;;;61.60;;
23346;SDS011;36852;45.466;11.066;2024-02-15T21:20:27;115.50;;;66.05;;
23346;SDS011;36852;45.466;11.066;2024-02-15T21:23:05;119.28;;;66.37;;
23346;SDS011;36852;45.466;11.066;2024-02-15T21:25:44;113.42;;;65.10;;
23346;SDS011;36852;45.466;11.066;2024-02-15T21:28:12;119.67;;;67.40;;
23346;SDS011;36852;45.466;11.066;2024-02-15T21:30:45;113.30;;;66.37;;
23346;SDS011;36852;45.466;11.066;2024-02-15T21:36:15;108.00;;;62.75;;
23346;SDS011;36852;45.466;11.066;2024-02-15T21:38:54;114.52;;;64.58;;
23346;SDS011;36852;45.466;11.066;2024-02-15T21:41:25;122.50;;;63.45;;
23346;SDS011;36852;45.466;11.066;2024-02-15T21:44:15;110.37;;;63.13;;
23346;SDS011;36852;45.466;11.066;2024-02-15T21:47:03;124.50;;;68.00;;
23346;SDS011;36852;45.466;11.066;2024-02-15T21:52:47;120.85;;;65.52;;
23346;SDS011;36852;45.466;11.066;2024-02-15T21:58:52;113.37;;;62.78;;
23346;SDS011;36852;45.466;11.066;2024-02-15T22:04:58;100.27;;;57.13;;
23346;SDS011;36852;45.466;11.066;2024-02-15T22:08:16;112.03;;;60.92;;
23346;SDS011;36852;45.466;11.066;2024-02-15T22:13:57;110.75;;;61.55;;
23346;SDS011;36852;45.466;11.066;2024-02-15T22:16:48;110.42;;;60.03;;
23346;SDS011;36852;45.466;11.066;2024-02-15T22:19:39;102.38;;;58.50;;
23346;SDS011;36852;45.466;11.066;2024-02-15T22:22:14;110.92;;;59.67;;
23346;SDS011;36852;45.466;11.066;2024-02-15T22:39:18;107.35;;;58.78;;
23346;SDS011;36852;45.466;11.066;2024-02-15T22:45:54;103.58;;;54.90;;
23346;SDS011;36852;45.466;11.066;2024-02-15T22:49:19;95.60;;;56.55;;
